createdAt,value
2018-06-05T00:04:02.899Z,100960.77
2018-06-05T00:09:06.615Z,100961.45
2018-06-05T00:14:08.768Z,100961.28
2018-06-05T00:19:10.926Z,100966.22
2018-06-05T00:24:13.075Z,100963.80
2018-06-05T00:29:15.215Z,100958.34
2018-06-05T00:34:17.407Z,100957.70
2018-06-05T00:39:19.790Z,100967.73
2018-06-05T00:44:21.945Z,100965.30
2018-06-05T00:49:24.105Z,100960.70
2018-06-05T00:54:26.296Z,100962.05
2018-06-05T00:59:35.463Z,100965.09
2018-06-05T01:04:37.616Z,100967.92
2018-06-05T01:09:39.803Z,100960.83
2018-06-05T01:14:41.966Z,100968.87
2018-06-05T01:19:44.084Z,100961.75
2018-06-05T01:24:46.236Z,100961.00
2018-06-05T01:29:48.384Z,100963.23
2018-06-05T01:34:50.541Z,100970.08
2018-06-05T01:39:52.705Z,100973.80
2018-06-05T01:44:54.894Z,100967.05
2018-06-05T01:49:57.032Z,100961.95
2018-06-05T01:54:59.204Z,100959.39
2018-06-05T02:00:01.333Z,100956.36
2018-06-05T02:05:03.530Z,100958.52
2018-06-05T02:10:05.663Z,100952.41
2018-06-05T02:15:08.043Z,100958.78
2018-06-05T02:20:10.179Z,100952.34
2018-06-05T02:25:12.322Z,100954.00
2018-06-05T02:30:14.467Z,100954.77
2018-06-05T02:35:16.614Z,100951.13
2018-06-05T02:40:18.798Z,100949.44
2018-06-05T02:45:20.939Z,100955.18
2018-06-05T02:50:23.081Z,100951.75
2018-06-05T02:55:25.292Z,100951.09
2018-06-05T03:00:27.407Z,100953.77
2018-06-05T03:05:29.570Z,100952.52
2018-06-05T03:10:31.717Z,100958.46
2018-06-05T03:15:33.862Z,100958.59
2018-06-05T03:20:35.985Z,100956.67
2018-06-05T03:25:38.267Z,100952.23
2018-06-05T03:30:40.375Z,100950.98
2018-06-05T03:35:42.492Z,100955.64
2018-06-05T03:40:44.670Z,100957.44
2018-06-05T03:45:46.891Z,100958.98
2018-06-05T03:50:48.998Z,100966.25
2018-06-05T03:55:51.199Z,100967.37
2018-06-05T04:00:53.340Z,100958.16
2018-06-05T04:05:55.478Z,100965.86
2018-06-05T04:10:57.620Z,100970.85
2018-06-05T04:15:59.762Z,100979.41
2018-06-05T04:21:01.910Z,100985.98
2018-06-05T04:26:04.079Z,100986.48
2018-06-05T04:31:06.237Z,100999.89
2018-06-05T04:36:08.434Z,101003.37
2018-06-05T04:41:10.628Z,100997.73
2018-06-05T04:46:12.819Z,101006.67
2018-06-05T04:51:15.040Z,101018.72
2018-06-05T04:56:17.316Z,101023.12
2018-06-05T05:01:19.500Z,101019.69
2018-06-05T05:06:21.669Z,101019.69
2018-06-05T05:11:23.844Z,101026.19
2018-06-05T05:16:26.012Z,101029.10
2018-06-05T05:21:28.203Z,101034.80
2018-06-05T05:26:30.352Z,101043.00
2018-06-05T05:31:32.536Z,101048.62
2018-06-05T05:36:34.731Z,101057.34
2018-06-05T05:41:36.952Z,101058.52
2018-06-05T05:46:39.133Z,101056.65
2018-06-05T05:51:41.264Z,101065.39
2018-06-05T05:56:43.509Z,101070.17
2018-06-05T06:01:45.730Z,101069.75
2018-06-05T06:06:47.871Z,101073.19
2018-06-05T06:11:50.050Z,101078.53
2018-06-05T06:16:52.252Z,101082.97
2018-06-05T06:21:54.433Z,101077.03
2018-06-05T06:26:56.992Z,101076.70
2018-06-05T06:31:59.147Z,101074.79
2018-06-05T06:37:01.336Z,101075.32
2018-06-05T06:42:03.540Z,101070.20
2018-06-05T06:47:05.696Z,101070.49
2018-06-05T06:52:07.895Z,101084.02
2018-06-05T06:57:10.075Z,101088.48
2018-06-05T07:02:12.261Z,101080.42
2018-06-05T07:07:14.445Z,101085.13
2018-06-05T07:12:16.669Z,101090.89
2018-06-05T07:17:18.807Z,101093.73
2018-06-05T07:22:20.970Z,101103.48
2018-06-05T07:27:23.107Z,101098.90
2018-06-05T07:32:25.263Z,101097.80
2018-06-05T07:37:27.437Z,101099.05
2018-06-05T07:42:29.623Z,101100.78
2018-06-05T07:47:31.817Z,101108.87
2018-06-05T07:52:33.975Z,101111.84
2018-06-05T07:57:36.159Z,101120.50
2018-06-05T08:02:38.330Z,101105.86
2018-06-05T08:07:40.475Z,101107.67
2018-06-05T08:12:42.731Z,101110.12
2018-06-05T08:17:44.891Z,101101.23
2018-06-05T08:22:53.389Z,101109.43
2018-06-05T08:27:55.518Z,101106.81
2018-06-05T08:32:57.723Z,101113.77
2018-06-05T08:37:59.943Z,101120.22
2018-06-05T08:43:02.149Z,101120.73
2018-06-05T08:48:04.433Z,101123.36
2018-06-05T08:53:06.627Z,101124.33
2018-06-05T08:58:08.895Z,101123.94
2018-06-05T09:03:11.097Z,101125.67
2018-06-05T09:08:13.307Z,101117.66
2018-06-05T09:13:15.478Z,101119.81
2018-06-05T09:18:17.745Z,101122.84
2018-06-05T09:23:19.926Z,101125.79
2018-06-05T09:28:22.159Z,101124.52
2018-06-05T09:33:24.412Z,101125.44
2018-06-05T09:38:26.636Z,101127.59
2018-06-05T09:43:28.840Z,101135.70
2018-06-05T09:48:31.013Z,101133.99
2018-06-05T09:53:33.216Z,101125.47
2018-06-05T09:58:35.618Z,101133.62
2018-06-05T10:03:37.643Z,101136.60
2018-06-05T10:08:40.109Z,101136.16
2018-06-05T10:13:42.290Z,101137.87
2018-06-05T10:18:44.509Z,101142.13
2018-06-05T10:23:46.692Z,101141.70
2018-06-05T10:28:48.869Z,101133.94
2018-06-05T10:33:51.055Z,101135.66
2018-06-05T10:38:53.275Z,101139.84
2018-06-05T10:43:55.473Z,101130.67
2018-06-05T10:48:57.651Z,101134.50
2018-06-05T10:53:59.838Z,101130.50
2018-06-05T10:59:02.080Z,101138.48
2018-06-05T11:04:04.251Z,101135.39
2018-06-05T11:09:07.269Z,101141.64
2018-06-05T11:14:09.447Z,101137.11
2018-06-05T11:19:11.610Z,101139.73
2018-06-05T11:24:13.874Z,101140.73
2018-06-05T11:29:16.048Z,101136.65
2018-06-05T11:34:18.192Z,101130.48
2018-06-05T11:39:20.799Z,101131.13
2018-06-05T11:44:23.012Z,101130.68
2018-06-05T11:49:25.215Z,101130.80
2018-06-05T11:54:27.378Z,101132.64
2018-06-05T11:59:29.594Z,101131.81
2018-06-05T12:04:31.804Z,101134.53
2018-06-05T12:09:34.013Z,101126.73
2018-06-05T12:14:53.252Z,101131.30
2018-06-05T12:19:55.745Z,101120.23
2018-06-05T12:24:57.905Z,101131.52
2018-06-05T12:30:00.040Z,101119.40
2018-06-05T12:35:02.218Z,101124.45
2018-06-05T12:40:04.502Z,101121.50
2018-06-05T12:45:06.683Z,101126.45
2018-06-05T12:50:08.860Z,101127.45
2018-06-05T12:55:11.041Z,101133.01
2018-06-05T13:00:13.272Z,101132.34
2018-06-05T13:05:16.276Z,101128.75
2018-06-05T13:10:18.443Z,101122.27
2018-06-05T13:15:20.592Z,101125.16
2018-06-05T13:20:22.815Z,101129.76
2018-06-05T13:25:25.046Z,101127.97
2018-06-05T13:30:27.265Z,101121.16
2018-06-05T13:35:29.433Z,101120.63
2018-06-05T13:40:31.661Z,101133.65
2018-06-05T13:45:33.853Z,101127.66
2018-06-05T13:50:36.024Z,101122.96
2018-06-05T13:55:38.192Z,101124.94
2018-06-05T14:00:40.388Z,101129.31
2018-06-05T14:05:42.541Z,101117.91
2018-06-05T14:10:44.792Z,101124.66
2018-06-05T14:15:47.001Z,101124.64
2018-06-05T14:20:49.205Z,101120.61
2018-06-05T14:25:51.428Z,101112.36
2018-06-05T14:30:53.635Z,101118.50
2018-06-05T14:35:55.829Z,101107.95
2018-06-05T14:40:58.083Z,101113.67
2018-06-05T14:46:00.277Z,101111.18
2018-06-05T14:51:02.521Z,101108.50
2018-06-05T14:56:04.764Z,101104.63
2018-06-05T15:01:06.949Z,101099.34
2018-06-05T15:06:09.193Z,101105.25
2018-06-05T15:11:11.375Z,101101.06
2018-06-05T15:16:13.618Z,101099.48
2018-06-05T15:21:15.810Z,101107.20
2018-06-05T15:26:18.110Z,101099.77
2018-06-05T15:31:20.294Z,101100.19
2018-06-05T15:36:22.485Z,101091.20
2018-06-05T15:41:24.727Z,101097.97
2018-06-05T15:46:26.965Z,101095.66
2018-06-05T15:51:29.134Z,101098.11
2018-06-05T15:56:31.327Z,101098.54
2018-06-05T16:01:33.732Z,101087.84
2018-06-05T16:06:35.968Z,101095.08
2018-06-05T16:11:38.152Z,101093.64
2018-06-05T16:16:40.381Z,101084.02
2018-06-05T16:21:42.624Z,101092.40
2018-06-05T16:26:44.846Z,101087.26
2018-06-05T16:31:47.054Z,101094.51
2018-06-05T16:36:49.291Z,101087.36
2018-06-05T16:41:51.506Z,101101.30
2018-06-05T16:46:53.747Z,101098.75
2018-06-05T16:51:55.975Z,101097.38
2018-06-05T16:56:58.174Z,101098.28
2018-06-05T17:02:00.371Z,101103.34
2018-06-05T17:07:02.596Z,101104.98
2018-06-05T17:12:04.823Z,101108.36
2018-06-05T17:17:07.038Z,101112.42
2018-06-05T17:22:09.329Z,101104.23
2018-06-05T17:27:11.681Z,101111.86
2018-06-05T17:32:13.837Z,101111.87
2018-06-05T17:37:16.037Z,101111.06
2018-06-05T17:42:18.225Z,101122.75
2018-06-05T17:47:20.406Z,101116.33
2018-06-05T17:52:22.609Z,101121.08
2018-06-05T17:57:24.801Z,101118.49
2018-06-05T18:02:27.064Z,101119.32
2018-06-05T18:07:29.276Z,101130.41
2018-06-05T18:12:31.497Z,101127.04
2018-06-05T18:17:33.687Z,101133.41
2018-06-05T18:22:35.987Z,101134.48
2018-06-05T18:27:38.203Z,101139.78
2018-06-05T18:32:40.424Z,101150.22
2018-06-05T18:37:42.653Z,101147.06
2018-06-05T18:42:44.879Z,101157.94
2018-06-05T18:47:47.177Z,101156.66
2018-06-05T18:52:49.458Z,101159.91
2018-06-05T18:57:51.672Z,101165.16
2018-06-05T19:02:53.967Z,101175.45
2018-06-05T19:07:56.284Z,101185.34
2018-06-05T19:12:58.576Z,101190.03
2018-06-05T19:18:00.866Z,101189.20
2018-06-05T19:23:03.218Z,101199.90
2018-06-05T19:28:05.760Z,101201.64
2018-06-05T19:33:08.074Z,101203.81
2018-06-05T19:38:10.347Z,101206.80
2018-06-05T19:43:12.635Z,101211.52
2018-06-05T19:48:14.921Z,101217.96
2018-06-05T19:53:17.180Z,101211.97
2018-06-05T19:58:19.507Z,101213.27
2018-06-05T20:03:21.815Z,101216.68
2018-06-05T20:08:24.187Z,101224.38
2018-06-05T20:13:26.504Z,101230.78
2018-06-05T20:18:28.799Z,101230.80
2018-06-05T20:23:31.111Z,101247.44
2018-06-05T20:28:33.349Z,101243.14
2018-06-05T20:33:35.578Z,101245.27
2018-06-05T20:38:37.868Z,101251.23
2018-06-05T20:43:40.098Z,101251.63
2018-06-05T20:48:42.389Z,101257.98
2018-06-05T20:53:44.599Z,101258.81
2018-06-05T20:58:46.867Z,101258.34
2018-06-05T21:03:49.422Z,101260.06
2018-06-05T21:08:51.628Z,101269.91
2018-06-05T21:13:53.888Z,101267.31
2018-06-05T21:18:56.117Z,101265.80
2018-06-05T21:23:58.387Z,101267.47
2018-06-05T21:29:01.109Z,101273.38
2018-06-05T21:34:03.369Z,101273.46
2018-06-05T21:39:08.083Z,101291.41
2018-06-05T21:44:10.312Z,101287.48
2018-06-05T21:49:19.190Z,101297.33
2018-06-05T21:54:21.441Z,101299.44
2018-06-05T21:59:23.635Z,101305.42
2018-06-05T22:04:25.930Z,101307.91
2018-06-05T22:09:28.140Z,101224.89
2018-06-05T22:19:52.921Z,101321.87
2018-06-05T22:24:55.188Z,101315.45
2018-06-05T22:29:57.377Z,101327.80
2018-06-05T22:34:59.555Z,101324.73
2018-06-05T22:40:01.719Z,101319.96
2018-06-05T22:45:03.973Z,101326.67
2018-06-05T22:50:06.236Z,101322.25
2018-06-05T22:55:08.409Z,101325.16
2018-06-05T23:00:10.608Z,101323.36
2018-06-05T23:05:13.061Z,101322.48
2018-06-05T23:10:15.356Z,101324.91
2018-06-05T23:15:17.578Z,101327.81
2018-06-05T23:20:20.143Z,101331.59
2018-06-05T23:25:22.325Z,101337.98
2018-06-05T23:30:24.501Z,101335.32
2018-06-05T23:35:26.680Z,101338.63
2018-06-05T23:40:28.863Z,101339.05
2018-06-05T23:45:31.043Z,101346.23
2018-06-05T23:50:33.229Z,101344.92
2018-06-05T23:55:35.376Z,101352.52
